sensor_id;sensor_type;location;lat;lon;timestamp;pressure;altitude;pressure_sealevel;temperature;humidity
59104;BME280;51449;51.676;5.812;2022-08-19T00:01:31;101253.75;;;19.28;71.65
59104;BME280;51449;51.676;5.812;2022-08-19T00:04:00;101243.72;;;19.23;71.65
59104;BME280;51449;51.676;5.812;2022-08-19T00:06:28;101244.50;;;19.20;71.75
59104;BME280;51449;51.676;5.812;2022-08-19T00:08:51;101243.63;;;19.16;71.70
59104;BME280;51449;51.676;5.812;2022-08-19T00:11:13;101250.78;;;19.14;71.52
59104;BME280;51449;51.676;5.812;2022-08-19T00:13:46;101254.72;;;19.09;71.69
59104;BME280;51449;51.676;5.812;2022-08-19T00:16:09;101251.91;;;19.06;71.74
59104;BME280;51449;51.676;5.812;2022-08-19T00:18:33;101252.28;;;19.04;71.70
59104;BME280;51449;51.676;5.812;2022-08-19T00:20:55;101249.88;;;19.02;71.79
59104;BME280;51449;51.676;5.812;2022-08-19T00:23:17;101255.41;;;18.99;71.56
59104;BME280;51449;51.676;5.812;2022-08-19T00:25:39;101253.41;;;18.96;71.84
59104;BME280;51449;51.676;5.812;2022-08-19T00:28:03;101255.75;;;18.94;71.78
59104;BME280;51449;51.676;5.812;2022-08-19T00:30:25;101250.94;;;18.91;71.94
59104;BME280;51449;51.676;5.812;2022-08-19T00:32:49;101254.50;;;18.88;72.10
59104;BME280;51449;51.676;5.812;2022-08-19T00:35:12;101251.28;;;18.86;72.09
59104;BME280;51449;51.676;5.812;2022-08-19T00:37:34;101249.66;;;18.85;72.14
59104;BME280;51449;51.676;5.812;2022-08-19T00:39:56;101256.81;;;18.82;72.06
59104;BME280;51449;51.676;5.812;2022-08-19T00:42:20;101253.59;;;18.80;72.37
59104;BME280;51449;51.676;5.812;2022-08-19T00:44:43;101251.50;;;18.73;72.12
59104;BME280;51449;51.676;5.812;2022-08-19T00:47:05;101253.44;;;18.69;72.24
59104;BME280;51449;51.676;5.812;2022-08-19T00:49:42;101252.56;;;18.65;72.25
59104;BME280;51449;51.676;5.812;2022-08-19T00:52:20;101252.53;;;18.61;72.29
59104;BME280;51449;51.676;5.812;2022-08-19T00:54:45;101247.72;;;18.58;72.24
59104;BME280;51449;51.676;5.812;2022-08-19T00:57:17;101252.88;;;18.56;72.42
59104;BME280;51449;51.676;5.812;2022-08-19T00:59:44;101249.28;;;18.56;72.32
59104;BME280;51449;51.676;5.812;2022-08-19T01:02:22;101254.00;;;18.52;72.55
59104;BME280;51449;51.676;5.812;2022-08-19T01:04:45;101252.78;;;18.49;72.47
59104;BME280;51449;51.676;5.812;2022-08-19T01:07:07;101258.34;;;18.49;72.53
59104;BME280;51449;51.676;5.812;2022-08-19T01:09:35;101248.34;;;18.48;72.41
59104;BME280;51449;51.676;5.812;2022-08-19T01:11:57;101253.94;;;18.48;72.44
59104;BME280;51449;51.676;5.812;2022-08-19T01:14:19;101257.13;;;18.47;72.34
59104;BME280;51449;51.676;5.812;2022-08-19T01:16:41;101272.25;;;18.46;72.41
59104;BME280;51449;51.676;5.812;2022-08-19T01:19:27;101273.44;;;18.45;72.39
59104;BME280;51449;51.676;5.812;2022-08-19T01:22:14;101264.19;;;18.40;72.60
59104;BME280;51449;51.676;5.812;2022-08-19T01:24:51;101256.94;;;18.36;72.39
59104;BME280;51449;51.676;5.812;2022-08-19T01:27:16;101268.50;;;18.34;72.64
59104;BME280;51449;51.676;5.812;2022-08-19T01:29:42;101252.09;;;18.29;72.44
59104;BME280;51449;51.676;5.812;2022-08-19T01:32:09;101258.41;;;18.26;72.47
59104;BME280;51449;51.676;5.812;2022-08-19T01:34:54;101247.13;;;18.19;72.52
59104;BME280;51449;51.676;5.812;2022-08-19T01:37:15;101250.31;;;18.17;72.58
59104;BME280;51449;51.676;5.812;2022-08-19T01:39:47;101256.66;;;18.14;72.45
59104;BME280;51449;51.676;5.812;2022-08-19T01:42:09;101251.81;;;18.11;72.38
59104;BME280;51449;51.676;5.812;2022-08-19T01:44:34;101261.31;;;18.07;72.63
59104;BME280;51449;51.676;5.812;2022-08-19T01:46:57;101261.22;;;18.00;72.53
59104;BME280;51449;51.676;5.812;2022-08-19T01:49:21;101249.56;;;17.94;72.48
59104;BME280;51449;51.676;5.812;2022-08-19T01:51:47;101262.66;;;17.90;72.61
59104;BME280;51449;51.676;5.812;2022-08-19T01:54:14;101267.34;;;17.86;72.69
59104;BME280;51449;51.676;5.812;2022-08-19T01:56:49;101267.28;;;17.82;72.75
59104;BME280;51449;51.676;5.812;2022-08-19T01:59:19;101269.66;;;17.80;72.94
59104;BME280;51449;51.676;5.812;2022-08-19T02:01:44;101283.13;;;17.78;72.89
59104;BME280;51449;51.676;5.812;2022-08-19T02:04:07;101282.69;;;17.76;73.09
59104;BME280;51449;51.676;5.812;2022-08-19T02:06:29;101279.09;;;17.75;72.82
59104;BME280;51449;51.676;5.812;2022-08-19T02:08:51;101278.28;;;17.75;72.94
59104;BME280;51449;51.676;5.812;2022-08-19T02:11:25;101278.28;;;17.75;72.92
59104;BME280;51449;51.676;5.812;2022-08-19T02:13:49;101279.81;;;17.72;72.90
59104;BME280;51449;51.676;5.812;2022-08-19T02:16:11;101288.19;;;17.72;73.26
59104;BME280;51449;51.676;5.812;2022-08-19T02:18:33;101285.78;;;17.71;73.14
59104;BME280;51449;51.676;5.812;2022-08-19T02:20:55;101286.50;;;17.68;73.08
59104;BME280;51449;51.676;5.812;2022-08-19T02:23:17;101286.09;;;17.66;73.24
59104;BME280;51449;51.676;5.812;2022-08-19T02:25:40;101276.88;;;17.62;73.20
59104;BME280;51449;51.676;5.812;2022-08-19T02:28:04;101279.22;;;17.60;73.38
59104;BME280;51449;51.676;5.812;2022-08-19T02:30:26;101276.41;;;17.60;73.35
59104;BME280;51449;51.676;5.812;2022-08-19T02:32:48;101279.22;;;17.60;73.16
59104;BME280;51449;51.676;5.812;2022-08-19T02:35:12;101272.84;;;17.59;73.60
59104;BME280;51449;51.676;5.812;2022-08-19T02:37:34;101277.63;;;17.59;73.42
59104;BME280;51449;51.676;5.812;2022-08-19T02:40:15;101279.97;;;17.57;73.61
59104;BME280;51449;51.676;5.812;2022-08-19T02:42:39;101281.94;;;17.56;73.53
59104;BME280;51449;51.676;5.812;2022-08-19T02:45:03;101282.75;;;17.57;73.73
59104;BME280;51449;51.676;5.812;2022-08-19T02:47:26;101285.16;;;17.58;73.70
59104;BME280;51449;51.676;5.812;2022-08-19T02:49:48;101285.16;;;17.58;73.57
59104;BME280;51449;51.676;5.812;2022-08-19T02:52:11;101293.13;;;17.60;73.63
59104;BME280;51449;51.676;5.812;2022-08-19T02:54:33;101293.13;;;17.60;73.78
59104;BME280;51449;51.676;5.812;2022-08-19T02:56:55;101295.94;;;17.60;73.64
59104;BME280;51449;51.676;5.812;2022-08-19T02:59:17;101293.13;;;17.60;73.91
59104;BME280;51449;51.676;5.812;2022-08-19T03:01:43;101290.34;;;17.60;74.10
59104;BME280;51449;51.676;5.812;2022-08-19T03:04:08;101292.34;;;17.59;73.80
59104;BME280;51449;51.676;5.812;2022-08-19T03:06:40;101285.97;;;17.59;73.87
59104;BME280;51449;51.676;5.812;2022-08-19T03:09:02;101284.34;;;17.58;73.96
59104;BME280;51449;51.676;5.812;2022-08-19T03:11:29;101293.88;;;17.57;74.10
59104;BME280;51449;51.676;5.812;2022-08-19T03:13:53;101291.47;;;17.55;73.94
59104;BME280;51449;51.676;5.812;2022-08-19T03:16:17;101294.25;;;17.55;74.01
59104;BME280;51449;51.676;5.812;2022-08-19T03:18:39;101283.91;;;17.55;73.93
59104;BME280;51449;51.676;5.812;2022-08-19T03:21:02;101288.31;;;17.57;74.20
59104;BME280;51449;51.676;5.812;2022-08-19T03:23:24;101296.31;;;17.58;74.00
59104;BME280;51449;51.676;5.812;2022-08-19T03:25:47;101293.81;;;17.53;74.12
59104;BME280;51449;51.676;5.812;2022-08-19T03:28:32;101292.97;;;17.49;74.08
59104;BME280;51449;51.676;5.812;2022-08-19T03:31:06;101296.09;;;17.47;74.40
59104;BME280;51449;51.676;5.812;2022-08-19T03:33:51;101296.09;;;17.47;74.58
59104;BME280;51449;51.676;5.812;2022-08-19T03:36:16;101303.31;;;17.48;74.80
59104;BME280;51449;51.676;5.812;2022-08-19T03:38:48;101299.78;;;17.51;74.96
59104;BME280;51449;51.676;5.812;2022-08-19T03:41:23;101303.00;;;17.53;75.18
59104;BME280;51449;51.676;5.812;2022-08-19T03:44:04;101301.44;;;17.56;75.09
59104;BME280;51449;51.676;5.812;2022-08-19T03:46:33;101295.94;;;17.60;75.21
59104;BME280;51449;51.676;5.812;2022-08-19T03:48:57;101289.59;;;17.63;75.31
59104;BME280;51449;51.676;5.812;2022-08-19T03:51:32;101291.69;;;17.66;75.42
59104;BME280;51449;51.676;5.812;2022-08-19T03:53:58;101286.81;;;17.63;75.27
59104;BME280;51449;51.676;5.812;2022-08-19T03:56:22;101292.38;;;17.63;75.27
59104;BME280;51449;51.676;5.812;2022-08-19T03:58:48;101289.19;;;17.61;75.42
59104;BME280;51449;51.676;5.812;2022-08-19T04:01:14;101290.34;;;17.60;75.29
59104;BME280;51449;51.676;5.812;2022-08-19T04:03:39;101293.94;;;17.60;75.23
59104;BME280;51449;51.676;5.812;2022-08-19T04:06:17;101290.00;;;17.61;75.54
59104;BME280;51449;51.676;5.812;2022-08-19T04:08:44;101301.94;;;17.62;75.45
59104;BME280;51449;51.676;5.812;2022-08-19T04:11:08;101299.91;;;17.59;75.25
59104;BME280;51449;51.676;5.812;2022-08-19T04:13:30;101299.47;;;17.57;75.15
59104;BME280;51449;51.676;5.812;2022-08-19T04:15:52;101289.88;;;17.54;75.13
59104;BME280;51449;51.676;5.812;2022-08-19T04:18:14;101276.28;;;17.52;75.30
59104;BME280;51449;51.676;5.812;2022-08-19T04:20:55;101285.03;;;17.51;75.48
59104;BME280;51449;51.676;5.812;2022-08-19T04:23:17;101288.09;;;17.46;75.36
59104;BME280;51449;51.676;5.812;2022-08-19T04:25:43;101279.34;;;17.44;75.26
59104;BME280;51449;51.676;5.812;2022-08-19T04:28:06;101280.78;;;17.38;75.11
59104;BME280;51449;51.676;5.812;2022-08-19T04:30:28;101275.88;;;17.31;75.19
59104;BME280;51449;51.676;5.812;2022-08-19T04:32:50;101274.22;;;17.26;75.45
59104;BME280;51449;51.676;5.812;2022-08-19T04:35:12;101271.81;;;17.25;75.74
59104;BME280;51449;51.676;5.812;2022-08-19T04:37:38;101273.41;;;17.26;76.17
59104;BME280;51449;51.676;5.812;2022-08-19T04:40:00;101270.25;;;17.27;76.44
59104;BME280;51449;51.676;5.812;2022-08-19T04:42:40;101262.78;;;17.31;76.48
59104;BME280;51449;51.676;5.812;2022-08-19T04:45:03;101263.28;;;17.37;76.74
59104;BME280;51449;51.676;5.812;2022-08-19T04:47:29;101266.94;;;17.41;77.33
59104;BME280;51449;51.676;5.812;2022-08-19T04:50:14;101268.25;;;17.47;77.74
59104;BME280;51449;51.676;5.812;2022-08-19T04:52:39;101271.91;;;17.51;78.06
59104;BME280;51449;51.676;5.812;2022-08-19T04:55:04;101269.25;;;17.59;78.09
59104;BME280;51449;51.676;5.812;2022-08-19T04:57:28;101282.88;;;17.64;78.26
59104;BME280;51449;51.676;5.812;2022-08-19T04:59:54;101272.56;;;17.68;78.48
59104;BME280;51449;51.676;5.812;2022-08-19T05:02:17;101272.66;;;17.71;78.54
59104;BME280;51449;51.676;5.812;2022-08-19T05:04:39;101273.13;;;17.77;78.74
59104;BME280;51449;51.676;5.812;2022-08-19T05:07:01;101288.78;;;17.82;78.74
59104;BME280;51449;51.676;5.812;2022-08-19T05:09:23;101283.69;;;17.87;79.00
59104;BME280;51449;51.676;5.812;2022-08-19T05:11:45;101282.56;;;17.92;79.00
59104;BME280;51449;51.676;5.812;2022-08-19T05:14:08;101285.00;;;17.93;79.19
59104;BME280;51449;51.676;5.812;2022-08-19T05:16:31;101289.81;;;17.96;78.75
59104;BME280;51449;51.676;5.812;2022-08-19T05:18:54;101293.84;;;17.99;78.79
59104;BME280;51449;51.676;5.812;2022-08-19T05:21:36;101302.28;;;18.03;79.04
59104;BME280;51449;51.676;5.812;2022-08-19T05:24:18;101295.50;;;18.04;79.09
59104;BME280;51449;51.676;5.812;2022-08-19T05:26:44;101294.41;;;18.08;78.90
59104;BME280;51449;51.676;5.812;2022-08-19T05:29:09;101297.63;;;18.10;78.88
59104;BME280;51449;51.676;5.812;2022-08-19T05:31:31;101294.09;;;18.13;78.92
59104;BME280;51449;51.676;5.812;2022-08-19T05:33:54;101305.31;;;18.17;79.14
59104;BME280;51449;51.676;5.812;2022-08-19T05:36:18;101306.53;;;18.20;78.96
59104;BME280;51449;51.676;5.812;2022-08-19T05:38:41;101312.16;;;18.23;78.95
59104;BME280;51449;51.676;5.812;2022-08-19T05:41:11;101304.72;;;18.31;79.28
59104;BME280;51449;51.676;5.812;2022-08-19T05:43:35;101318.34;;;18.36;79.14
59104;BME280;51449;51.676;5.812;2022-08-19T05:45:57;101318.84;;;18.42;79.15
59104;BME280;51449;51.676;5.812;2022-08-19T05:48:19;101308.94;;;18.48;79.11
59104;BME280;51449;51.676;5.812;2022-08-19T05:50:41;101305.81;;;18.53;79.50
59104;BME280;51449;51.676;5.812;2022-08-19T05:53:04;101313.06;;;18.57;79.96
59104;BME280;51449;51.676;5.812;2022-08-19T05:55:26;101312.75;;;18.63;80.26
59104;BME280;51449;51.676;5.812;2022-08-19T05:57:48;101318.81;;;18.68;80.31
59104;BME280;51449;51.676;5.812;2022-08-19T06:00:10;101310.91;;;18.74;80.42
59104;BME280;51449;51.676;5.812;2022-08-19T06:02:33;101314.59;;;18.78;80.50
59104;BME280;51449;51.676;5.812;2022-08-19T06:04:56;101309.84;;;18.82;80.65
59104;BME280;51449;51.676;5.812;2022-08-19T06:07:19;101304.69;;;18.84;80.80
59104;BME280;51449;51.676;5.812;2022-08-19T06:09:41;101313.13;;;18.88;80.68
59104;BME280;51449;51.676;5.812;2022-08-19T06:12:19;101311.56;;;18.90;81.00
59104;BME280;51449;51.676;5.812;2022-08-19T06:14:42;101312.41;;;18.94;80.65
59104;BME280;51449;51.676;5.812;2022-08-19T06:17:04;101309.69;;;18.98;80.78
59104;BME280;51449;51.676;5.812;2022-08-19T06:19:29;101315.72;;;19.03;80.35
59104;BME280;51449;51.676;5.812;2022-08-19T06:21:52;101311.00;;;19.08;80.25
59104;BME280;51449;51.676;5.812;2022-08-19T06:24:18;101310.66;;;19.13;79.86
59104;BME280;51449;51.676;5.812;2022-08-19T06:26:46;101318.25;;;19.16;80.22
59104;BME280;51449;51.676;5.812;2022-08-19T06:29:12;101324.28;;;19.18;79.83
59104;BME280;51449;51.676;5.812;2022-08-19T06:31:49;101317.56;;;19.22;79.54
59104;BME280;51449;51.676;5.812;2022-08-19T06:34:13;101316.78;;;19.25;79.21
59104;BME280;51449;51.676;5.812;2022-08-19T06:36:38;101321.59;;;19.29;78.86
59104;BME280;51449;51.676;5.812;2022-08-19T06:39:05;101320.44;;;19.30;78.78
59104;BME280;51449;51.676;5.812;2022-08-19T06:41:51;101319.66;;;19.33;78.52
59104;BME280;51449;51.676;5.812;2022-08-19T06:44:21;101323.69;;;19.35;78.75
59104;BME280;51449;51.676;5.812;2022-08-19T06:46:46;101317.78;;;19.44;78.53
59104;BME280;51449;51.676;5.812;2022-08-19T06:49:16;101317.94;;;19.58;78.52
59104;BME280;51449;51.676;5.812;2022-08-19T06:51:41;101316.50;;;19.72;78.44
59104;BME280;51449;51.676;5.812;2022-08-19T06:54:05;101323.00;;;19.83;77.95
59104;BME280;51449;51.676;5.812;2022-08-19T06:56:40;101323.47;;;19.92;77.35
59104;BME280;51449;51.676;5.812;2022-08-19T06:59:06;101319.16;;;19.98;77.16
59104;BME280;51449;51.676;5.812;2022-08-19T07:01:38;101312.41;;;20.06;76.70
59104;BME280;51449;51.676;5.812;2022-08-19T07:04:09;101323.66;;;20.14;76.22
59104;BME280;51449;51.676;5.812;2022-08-19T07:06:32;101320.13;;;20.20;75.83
59104;BME280;51449;51.676;5.812;2022-08-19T07:09:06;101306.59;;;20.29;75.82
59104;BME280;51449;51.676;5.812;2022-08-19T07:11:29;101322.28;;;20.41;75.50
59104;BME280;51449;51.676;5.812;2022-08-19T07:13:54;101315.13;;;20.47;75.10
59104;BME280;51449;51.676;5.812;2022-08-19T07:16:18;101318.03;;;20.62;75.07
59104;BME280;51449;51.676;5.812;2022-08-19T07:18:50;101324.91;;;20.75;75.04
59104;BME280;51449;51.676;5.812;2022-08-19T07:21:22;101322.56;;;20.84;74.43
59104;BME280;51449;51.676;5.812;2022-08-19T07:23:50;101332.63;;;20.96;74.23
59104;BME280;51449;51.676;5.812;2022-08-19T07:26:20;101343.47;;;21.08;74.11
59104;BME280;51449;51.676;5.812;2022-08-19T07:28:49;101339.91;;;21.19;73.82
59104;BME280;51449;51.676;5.812;2022-08-19T07:31:15;101329.94;;;21.28;73.33
59104;BME280;51449;51.676;5.812;2022-08-19T07:33:45;101339.66;;;21.42;73.22
59104;BME280;51449;51.676;5.812;2022-08-19T07:36:10;101338.47;;;21.57;73.07
59104;BME280;51449;51.676;5.812;2022-08-19T07:38:34;101335.69;;;21.71;72.81
59104;BME280;51449;51.676;5.812;2022-08-19T07:40:56;101330.91;;;21.79;71.27
59104;BME280;51449;51.676;5.812;2022-08-19T07:43:18;101337.31;;;21.87;71.25
59104;BME280;51449;51.676;5.812;2022-08-19T07:45:44;101344.56;;;21.95;70.87
59104;BME280;51449;51.676;5.812;2022-08-19T07:48:06;101342.97;;;22.05;70.33
59104;BME280;51449;51.676;5.812;2022-08-19T07:50:29;101347.75;;;22.11;70.27
59104;BME280;51449;51.676;5.812;2022-08-19T07:52:51;101350.59;;;22.22;69.81
59104;BME280;51449;51.676;5.812;2022-08-19T07:55:13;101354.63;;;22.32;69.47
59104;BME280;51449;51.676;5.812;2022-08-19T07:57:55;101350.19;;;22.38;68.88
59104;BME280;51449;51.676;5.812;2022-08-19T08:00:17;101348.56;;;22.40;68.37
59104;BME280;51449;51.676;5.812;2022-08-19T08:02:45;101344.56;;;22.45;68.09
59104;BME280;51449;51.676;5.812;2022-08-19T08:05:08;101361.00;;;22.50;67.68
59104;BME280;51449;51.676;5.812;2022-08-19T08:07:49;101355.78;;;22.56;68.22
59104;BME280;51449;51.676;5.812;2022-08-19T08:10:30;101355.75;;;22.67;67.96
59104;BME280;51449;51.676;5.812;2022-08-19T08:12:52;101365.78;;;22.75;66.80
59104;BME280;51449;51.676;5.812;2022-08-19T08:15:31;101358.16;;;22.79;67.17
59104;BME280;51449;51.676;5.812;2022-08-19T08:17:53;101362.53;;;22.87;67.04
59104;BME280;51449;51.676;5.812;2022-08-19T08:20:15;101359.72;;;22.98;67.16
59104;BME280;51449;51.676;5.812;2022-08-19T08:22:43;101365.31;;;23.08;66.71
59104;BME280;51449;51.676;5.812;2022-08-19T08:25:24;101372.91;;;23.19;65.99
59104;BME280;51449;51.676;5.812;2022-08-19T08:27:47;101375.69;;;23.19;65.74
59104;BME280;51449;51.676;5.812;2022-08-19T08:30:20;101374.47;;;23.23;65.12
59104;BME280;51449;51.676;5.812;2022-08-19T08:32:45;101378.88;;;23.28;64.35
59104;BME280;51449;51.676;5.812;2022-08-19T08:35:13;101377.25;;;23.34;63.88
59104;BME280;51449;51.676;5.812;2022-08-19T08:37:45;101379.22;;;23.41;63.23
59104;BME280;51449;51.676;5.812;2022-08-19T08:43:32;101374.28;;;23.66;63.46
59104;BME280;51449;51.676;5.812;2022-08-19T08:46:06;101372.25;;;23.78;62.49
59104;BME280;51449;51.676;5.812;2022-08-19T08:52:07;101375.31;;;23.98;61.97
59104;BME280;51449;51.676;5.812;2022-08-19T08:54:41;101378.41;;;24.14;61.31
59104;BME280;51449;51.676;5.812;2022-08-19T08:57:21;101378.28;;;24.28;61.25
59104;BME280;51449;51.676;5.812;2022-08-19T09:00:00;101375.78;;;24.41;60.73
59104;BME280;51449;51.676;5.812;2022-08-19T09:02:40;101366.84;;;24.50;59.44
59104;BME280;51449;51.676;5.812;2022-08-19T09:05:05;101371.63;;;24.56;59.42
59104;BME280;51449;51.676;5.812;2022-08-19T09:10:44;101375.38;;;24.84;59.11
59104;BME280;51449;51.676;5.812;2022-08-19T09:13:22;101375.63;;;24.97;58.33
59104;BME280;51449;51.676;5.812;2022-08-19T09:16:16;101371.91;;;25.07;57.99
59104;BME280;51449;51.676;5.812;2022-08-19T09:18:52;101369.75;;;25.18;57.63
59104;BME280;51449;51.676;5.812;2022-08-19T09:21:28;101372.94;;;25.24;56.71
59104;BME280;51449;51.676;5.812;2022-08-19T09:23:54;101367.66;;;25.26;56.94
59104;BME280;51449;51.676;5.812;2022-08-19T09:26:20;101383.78;;;25.26;56.48
59104;BME280;51449;51.676;5.812;2022-08-19T09:28:55;101382.03;;;25.35;56.65
59104;BME280;51449;51.676;5.812;2022-08-19T09:31:22;101381.09;;;25.46;55.87
59104;BME280;51449;51.676;5.812;2022-08-19T09:33:48;101374.28;;;25.43;55.98
59104;BME280;51449;51.676;5.812;2022-08-19T09:36:14;101373.06;;;25.44;56.04
59104;BME280;51449;51.676;5.812;2022-08-19T09:38:55;101383.88;;;25.18;56.19
59104;BME280;51449;51.676;5.812;2022-08-19T09:41:21;101384.00;;;25.04;56.34
59104;BME280;51449;51.676;5.812;2022-08-19T09:43:47;101380.47;;;24.96;56.90
59104;BME280;51449;51.676;5.812;2022-08-19T09:46:13;101377.56;;;25.04;56.77
59104;BME280;51449;51.676;5.812;2022-08-19T09:48:40;101381.88;;;25.15;57.01
59104;BME280;51449;51.676;5.812;2022-08-19T09:51:09;101380.53;;;25.27;55.60
59104;BME280;51449;51.676;5.812;2022-08-19T09:53:43;101389.19;;;25.09;56.57
59104;BME280;51449;51.676;5.812;2022-08-19T09:56:06;101395.06;;;24.88;56.72
59104;BME280;51449;51.676;5.812;2022-08-19T09:58:30;101394.75;;;24.78;57.11
59104;BME280;51449;51.676;5.812;2022-08-19T10:00:57;101399.22;;;24.76;57.19
59104;BME280;51449;51.676;5.812;2022-08-19T10:03:21;101388.41;;;24.71;56.81
59104;BME280;51449;51.676;5.812;2022-08-19T10:05:46;101401.25;;;24.75;55.63
59104;BME280;51449;51.676;5.812;2022-08-19T10:08:27;101407.22;;;24.81;55.54
59104;BME280;51449;51.676;5.812;2022-08-19T10:10:52;101405.84;;;24.96;56.42
59104;BME280;51449;51.676;5.812;2022-08-19T10:13:19;101407.66;;;25.17;55.43
59104;BME280;51449;51.676;5.812;2022-08-19T10:15:46;101410.47;;;25.14;54.61
59104;BME280;51449;51.676;5.812;2022-08-19T10:18:11;101404.91;;;25.07;54.80
59104;BME280;51449;51.676;5.812;2022-08-19T10:20:33;101401.97;;;24.83;54.45
59104;BME280;51449;51.676;5.812;2022-08-19T10:22:58;101393.31;;;24.63;55.15
59104;BME280;51449;51.676;5.812;2022-08-19T10:25:22;101398.91;;;24.67;55.37
59104;BME280;51449;51.676;5.812;2022-08-19T10:27:44;101394.00;;;24.74;55.69
59104;BME280;51449;51.676;5.812;2022-08-19T10:30:12;101393.50;;;24.83;55.72
59104;BME280;51449;51.676;5.812;2022-08-19T10:32:35;101389.84;;;24.86;56.13
59104;BME280;51449;51.676;5.812;2022-08-19T10:34:57;101392.72;;;24.83;56.08
59104;BME280;51449;51.676;5.812;2022-08-19T10:37:19;101393.31;;;24.63;56.44
59104;BME280;51449;51.676;5.812;2022-08-19T10:39:51;101392.53;;;24.59;56.30
59104;BME280;51449;51.676;5.812;2022-08-19T10:42:14;101401.47;;;24.50;55.75
59104;BME280;51449;51.676;5.812;2022-08-19T10:44:37;101397.50;;;24.41;55.90
59104;BME280;51449;51.676;5.812;2022-08-19T10:46:59;101401.56;;;24.36;55.99
59104;BME280;51449;51.676;5.812;2022-08-19T10:49:21;101401.50;;;24.43;56.49
59104;BME280;51449;51.676;5.812;2022-08-19T10:51:45;101391.28;;;24.64;55.71
59104;BME280;51449;51.676;5.812;2022-08-19T10:54:31;101392.25;;;24.88;55.33
59104;BME280;51449;51.676;5.812;2022-08-19T10:57:14;101384.34;;;25.10;53.66
59104;BME280;51449;51.676;5.812;2022-08-19T10:59:37;101393.03;;;25.26;53.56
59104;BME280;51449;51.676;5.812;2022-08-19T11:02:02;101386.88;;;25.35;52.93
59104;BME280;51449;51.676;5.812;2022-08-19T11:04:26;101383.50;;;25.47;52.85
59104;BME280;51449;51.676;5.812;2022-08-19T11:06:50;101385.34;;;25.61;52.22
59104;BME280;51449;51.676;5.812;2022-08-19T11:09:12;101387.81;;;25.55;52.70
59104;BME280;51449;51.676;5.812;2022-08-19T11:11:37;101391.03;;;25.57;52.86
59104;BME280;51449;51.676;5.812;2022-08-19T11:14:02;101384.25;;;25.51;52.52
59104;BME280;51449;51.676;5.812;2022-08-19T11:16:26;101388.47;;;25.36;53.22
59104;BME280;51449;51.676;5.812;2022-08-19T11:18:52;101392.59;;;25.31;53.12
59104;BME280;51449;51.676;5.812;2022-08-19T11:21:26;101386.31;;;25.13;53.10
59104;BME280;51449;51.676;5.812;2022-08-19T11:23:56;101388.44;;;25.05;53.76
59104;BME280;51449;51.676;5.812;2022-08-19T11:26:21;101394.47;;;25.07;53.73
59104;BME280;51449;51.676;5.812;2022-08-19T11:28:44;101400.19;;;25.00;54.37
59104;BME280;51449;51.676;5.812;2022-08-19T11:31:16;101393.44;;;24.90;54.69
59104;BME280;51449;51.676;5.812;2022-08-19T11:33:40;101389.63;;;25.04;54.43
59104;BME280;51449;51.676;5.812;2022-08-19T11:36:08;101383.34;;;24.93;54.43
59104;BME280;51449;51.676;5.812;2022-08-19T11:38:35;101388.66;;;24.84;54.77
59104;BME280;51449;51.676;5.812;2022-08-19T11:41:04;101382.94;;;24.91;55.55
59104;BME280;51449;51.676;5.812;2022-08-19T11:43:29;101371.28;;;24.89;54.84
59104;BME280;51449;51.676;5.812;2022-08-19T11:45:58;101372.22;;;24.78;54.44
59104;BME280;51449;51.676;5.812;2022-08-19T11:48:21;101372.47;;;24.91;54.92
59104;BME280;51449;51.676;5.812;2022-08-19T11:50:43;101374.94;;;25.24;54.87
59104;BME280;51449;51.676;5.812;2022-08-19T11:53:05;101371.28;;;25.57;54.08
59104;BME280;51449;51.676;5.812;2022-08-19T11:55:30;101370.41;;;25.91;53.05
59104;BME280;51449;51.676;5.812;2022-08-19T11:57:53;101369.19;;;26.16;52.35
59104;BME280;51449;51.676;5.812;2022-08-19T12:00:16;101376.13;;;26.11;51.88
59104;BME280;51449;51.676;5.812;2022-08-19T12:02:38;101367.53;;;26.18;51.29
59104;BME280;51449;51.676;5.812;2022-08-19T12:05:01;101367.63;;;26.15;51.52
59104;BME280;51449;51.676;5.812;2022-08-19T12:07:26;101369.56;;;26.18;51.82
59104;BME280;51449;51.676;5.812;2022-08-19T12:09:48;101370.50;;;26.35;52.00
59104;BME280;51449;51.676;5.812;2022-08-19T12:12:11;101360.88;;;26.56;51.59
59104;BME280;51449;51.676;5.812;2022-08-19T12:14:33;101359.75;;;26.73;50.90
59104;BME280;51449;51.676;5.812;2022-08-19T12:16:56;101358.75;;;26.83;50.29
59104;BME280;51449;51.676;5.812;2022-08-19T12:19:18;101360.75;;;26.63;50.80
59104;BME280;51449;51.676;5.812;2022-08-19T12:21:43;101359.16;;;26.62;51.11
59104;BME280;51449;51.676;5.812;2022-08-19T12:24:05;101370.44;;;26.62;51.20
59104;BME280;51449;51.676;5.812;2022-08-19T12:26:28;101371.03;;;26.53;50.51
59104;BME280;51449;51.676;5.812;2022-08-19T12:28:53;101364.31;;;26.43;50.40
59104;BME280;51449;51.676;5.812;2022-08-19T12:31:16;101366.41;;;26.39;50.12
59104;BME280;51449;51.676;5.812;2022-08-19T12:33:40;101364.91;;;26.31;50.77
59104;BME280;51449;51.676;5.812;2022-08-19T12:36:05;101364.78;;;26.15;50.77
59104;BME280;51449;51.676;5.812;2022-08-19T12:38:29;101368.72;;;26.21;51.06
59104;BME280;51449;51.676;5.812;2022-08-19T12:40:51;101353.13;;;26.36;51.39
59104;BME280;51449;51.676;5.812;2022-08-19T12:43:18;101351.16;;;26.57;51.08
59104;BME280;51449;51.676;5.812;2022-08-19T12:45:42;101352.44;;;26.76;50.25
59104;BME280;51449;51.676;5.812;2022-08-19T12:48:08;101353.34;;;26.69;49.89
59104;BME280;51449;51.676;5.812;2022-08-19T12:50:51;101345.25;;;26.71;50.70
59104;BME280;51449;51.676;5.812;2022-08-19T12:53:14;101356.84;;;26.77;50.28
59104;BME280;51449;51.676;5.812;2022-08-19T12:55:36;101341.19;;;26.72;50.07
59104;BME280;51449;51.676;5.812;2022-08-19T12:57:58;101329.88;;;26.72;49.58